Time;durP1;ratioP1;P1;durP2;ratioP2;P2;SDS_P1;SDS_P2;PMS_P1;PMS_P2;Temp;Humidity;BMP_temperature;BMP_pressure;BME280_temperature;BME280_humidity;BME280_pressure;Samples;Min_cycle;Max_cycle;Signal;HPM_P1;HPM_P2
2021/09/16 00:00:41;;;;;;;;;;;;;;;24.32;65.45;99732.75;2067222;28;19908;-67
2021/09/16 00:01:41;;;;;;;;;;;;;;;24.32;65.56;99726.38;2067199;28;19917;-67
2021/09/16 00:02:42;;;;;;;;;;;;;;;24.31;65.54;99720.03;2067968;28;20403;-67
2021/09/16 00:03:42;;;;;;;;;;;;;;;24.32;65.43;99730.00;2066735;28;19909;-67
2021/09/16 00:04:42;;;;;;;;;;;;;;;24.30;65.46;99723.84;2064646;28;19969;-67
2021/09/16 00:05:43;;;;;;;;;;;;;;;24.32;65.57;99726.38;2067161;28;19928;-67
2021/09/16 00:06:43;;;;;;;;;;;;;;;24.31;65.55;99714.53;2066718;28;19916;-67
2021/09/16 00:07:44;;;;;;;;;;;;;;;24.31;65.53;99720.03;2066786;28;19940;-67
2021/09/16 00:08:44;;;;;;;;;;;;;;;24.31;65.64;99721.94;2067583;28;20037;-66
2021/09/16 00:09:45;;;;;;;;;;;;;;;24.31;65.61;99714.53;2067991;28;20366;-67
2021/09/16 00:10:46;;;;;;;;;;;;;;;24.32;65.30;99715.38;2067236;28;20429;-67
2021/09/16 00:11:46;;;;;;;;;;;;;;;24.31;65.47;99710.91;2066343;28;20348;-67
2021/09/16 00:12:47;;;;;;;;;;;;;;;24.31;65.40;99702.66;2067505;28;20112;-68
2021/09/16 00:13:47;;;;;;;;;;;;;;;24.30;65.49;99701.81;2063955;28;19918;-68
2021/09/16 00:14:47;;;;;;;;;;;;;;;24.30;65.54;99704.56;2062728;28;20789;-68
2021/09/16 00:15:48;;;;;;;;;;;;;;;24.30;65.54;99701.81;2062756;28;19905;-68
2021/09/16 00:16:48;;;;;;;;;;;;;;;24.31;65.59;99698.00;2064647;28;20442;-68
2021/09/16 00:17:48;;;;;;;;;;;;;;;24.30;65.62;99696.31;2067858;28;20011;-67
2021/09/16 00:18:49;;;;;;;;;;;;;;;24.30;65.59;99690.78;2068240;28;19909;-66
2021/09/16 00:19:49;;;;;;;;;;;;;;;24.30;65.54;99701.81;2067254;28;19905;-67
2021/09/16 00:20:50;;;;;;;;;;;;;;;24.30;65.57;99701.81;2067839;28;19913;-67
2021/09/16 00:21:50;;;;;;;;;;;;;;;24.30;65.59;99695.41;2067024;28;19923;-67
2021/09/16 00:22:50;;;;;;;;;;;;;;;24.30;65.48;99698.19;2066338;28;19916;-67
2021/09/16 00:23:50;;;;;;;;;;;;;;;24.30;65.59;99700.94;2066374;28;19913;-67
2021/09/16 00:24:51;;;;;;;;;;;;;;;24.30;65.54;99700.94;2067275;28;19936;-67
2021/09/16 00:25:51;;;;;;;;;;;;;;;24.30;65.63;99696.31;2066398;28;19901;-67
2021/09/16 00:26:51;;;;;;;;;;;;;;;24.30;65.61;99696.31;2065976;28;20019;-68
2021/09/16 00:27:52;;;;;;;;;;;;;;;24.30;65.56;99695.41;2067889;28;19905;-67
2021/09/16 00:28:52;;;;;;;;;;;;;;;24.30;65.40;99701.81;2066737;28;20028;-67
2021/09/16 00:29:52;;;;;;;;;;;;;;;24.30;65.58;99711.94;2067671;28;20462;-67
2021/09/16 00:30:53;;;;;;;;;;;;;;;24.30;65.67;99711.94;2063943;28;19909;-67
2021/09/16 00:31:53;;;;;;;;;;;;;;;24.30;65.53;99712.81;2065269;28;19916;-67
2021/09/16 00:32:53;;;;;;;;;;;;;;;24.30;65.62;99703.69;2065468;28;20292;-67
2021/09/16 00:33:53;;;;;;;;;;;;;;;24.30;65.47;99701.81;2065119;28;20779;-67
2021/09/16 00:34:54;;;;;;;;;;;;;;;24.29;65.46;99704.75;2067308;28;19952;-67
2021/09/16 00:35:54;;;;;;;;;;;;;;;24.30;65.58;99709.19;2067068;28;19909;-67
2021/09/16 00:36:54;;;;;;;;;;;;;;;24.29;65.65;99691.81;2067633;28;19956;-67
2021/09/16 00:37:55;;;;;;;;;;;;;;;24.29;65.52;99694.56;2065324;28;19905;-67
2021/09/16 00:38:55;;;;;;;;;;;;;;;24.30;65.40;99689.91;2065857;28;19919;-67
2021/09/16 00:39:55;;;;;;;;;;;;;;;24.29;65.41;99686.31;2068957;28;19948;-67
2021/09/16 00:40:56;;;;;;;;;;;;;;;24.30;65.61;99689.91;2062117;28;20268;-67
2021/09/16 00:41:56;;;;;;;;;;;;;;;24.29;65.47;99683.56;2063343;28;19927;-67
2021/09/16 00:42:56;;;;;;;;;;;;;;;24.29;65.46;99678.06;2064394;28;19923;-68
2021/09/16 00:43:57;;;;;;;;;;;;;;;24.29;65.64;99683.56;2065999;28;20404;-67
2021/09/16 00:44:58;;;;;;;;;;;;;;;24.29;65.55;99682.72;2065615;28;19944;-67
2021/09/16 00:46:02;;;;;;;;;;;;;;;24.28;65.49;99676.34;2067123;28;20002;-67
2021/09/16 00:47:02;;;;;;;;;;;;;;;24.29;65.48;99688.22;2066306;28;20376;-67
2021/09/16 00:48:02;;;;;;;;;;;;;;;24.29;65.65;99688.22;2061955;28;19909;-67
2021/09/16 00:49:06;;;;;;;;;;;;;;;24.28;65.60;99684.63;2062816;28;19916;-67
2021/09/16 00:50:07;;;;;;;;;;;;;;;24.29;65.46;99689.06;2064901;28;19939;-67
2021/09/16 00:51:08;;;;;;;;;;;;;;;24.28;65.55;99690.13;2060745;28;19913;-67
2021/09/16 00:52:08;;;;;;;;;;;;;;;24.29;65.50;99694.56;2065558;28;19913;-67
2021/09/16 00:53:09;;;;;;;;;;;;;;;24.30;65.57;99700.94;2062518;28;19916;-67
2021/09/16 00:54:10;;;;;;;;;;;;;;;24.30;65.64;99703.69;2067577;28;19913;-67
2021/09/16 00:55:10;;;;;;;;;;;;;;;24.29;65.65;99697.34;2066832;28;20323;-67
2021/09/16 00:56:11;;;;;;;;;;;;;;;24.29;65.64;99694.56;2067233;28;20299;-67
2021/09/16 00:57:12;;;;;;;;;;;;;;;24.29;65.60;99702.84;2065407;28;19924;-67
2021/09/16 00:58:13;;;;;;;;;;;;;;;24.29;65.60;99705.59;2062460;28;20575;-67
2021/09/16 00:59:14;;;;;;;;;;;;;;;24.28;65.58;99706.66;2067748;28;20480;-67
2021/09/16 01:00:15;;;;;;;;;;;;;;;24.29;65.73;99715.75;2066418;28;19923;-68
2021/09/16 01:01:16;;;;;;;;;;;;;;;24.28;65.56;99706.66;2059402;28;20795;-68
2021/09/16 01:02:16;;;;;;;;;;;;;;;24.27;65.73;99713.19;2065912;28;19905;-68
2021/09/16 01:03:17;;;;;;;;;;;;;;;24.29;65.66;99711.09;2066383;28;19917;-68
2021/09/16 01:04:17;;;;;;;;;;;;;;;24.29;65.67;99704.75;2068357;28;19952;-66
2021/09/16 01:05:18;;;;;;;;;;;;;;;24.30;65.53;99706.44;2063086;28;20080;-67
2021/09/16 01:06:18;;;;;;;;;;;;;;;24.28;65.48;99703.06;2065323;28;20141;-68
2021/09/16 01:07:18;;;;;;;;;;;;;;;24.28;65.57;99698.38;2062917;28;20196;-67
2021/09/16 01:08:19;;;;;;;;;;;;;;;24.28;65.49;99692.88;2064702;28;19917;-67
2021/09/16 01:09:19;;;;;;;;;;;;;;;24.28;65.64;99698.38;2068018;28;19917;-67
2021/09/16 01:10:21;;;;;;;;;;;;;;;24.28;65.52;99695.63;2066929;28;19955;-67
2021/09/16 01:11:21;;;;;;;;;;;;;;;24.28;65.62;99692.88;2067888;28;20369;-67
2021/09/16 01:12:22;;;;;;;;;;;;;;;24.28;65.66;99692.03;2066257;28;20265;-67
2021/09/16 01:13:22;;;;;;;;;;;;;;;24.28;65.71;99694.78;2066791;28;19921;-67
2021/09/16 01:14:26;;;;;;;;;;;;;;;24.28;65.66;99703.06;2068190;28;19917;-67
2021/09/16 01:15:27;;;;;;;;;;;;;;;24.28;65.67;99700.28;2064984;28;19920;-67
2021/09/16 01:16:27;;;;;;;;;;;;;;;24.28;65.53;99708.56;2066076;28;19920;-67
2021/09/16 01:17:27;;;;;;;;;;;;;;;24.28;65.70;99703.91;2067443;28;19948;-67
2021/09/16 01:18:27;;;;;;;;;;;;;;;24.27;65.56;99704.94;2063906;28;19909;-67
2021/09/16 01:19:28;;;;;;;;;;;;;;;24.27;65.59;99702.19;2061966;28;19924;-67
2021/09/16 01:20:28;;;;;;;;;;;;;;;24.28;65.40;99695.63;2067089;28;19978;-67
2021/09/16 01:21:28;;;;;;;;;;;;;;;24.27;65.60;99699.41;2064841;28;19925;-66
2021/09/16 01:22:31;;;;;;;;;;;;;;;24.28;65.56;99703.91;2063464;28;20303;-67
2021/09/16 01:23:31;;;;;;;;;;;;;;;24.27;65.58;99702.19;2063955;28;19917;-67
2021/09/16 01:24:31;;;;;;;;;;;;;;;24.27;65.67;99707.69;2066837;28;20851;-67
2021/09/16 01:25:32;;;;;;;;;;;;;;;24.27;65.46;99715.94;2063215;28;20103;-67
2021/09/16 01:26:33;;;;;;;;;;;;;;;24.27;65.51;99702.19;2067584;28;21081;-67
2021/09/16 01:27:33;;;;;;;;;;;;;;;24.27;65.52;99707.69;2067639;28;20883;-69
2021/09/16 01:28:33;;;;;;;;;;;;;;;24.27;65.51;99713.19;2064993;28;20521;-66
2021/09/16 01:29:33;;;;;;;;;;;;;;;24.27;65.58;99718.69;2060496;28;20064;-67
2021/09/16 01:30:34;;;;;;;;;;;;;;;24.28;65.53;99705.81;2063531;28;19955;-67
2021/09/16 01:31:35;;;;;;;;;;;;;;;24.28;65.41;99716.81;2062269;28;19940;-67
2021/09/16 01:32:36;;;;;;;;;;;;;;;24.27;65.51;99718.69;2061510;28;19906;-67
2021/09/16 01:33:36;;;;;;;;;;;;;;;24.27;65.59;99724.22;2065691;28;19944;-66
2021/09/16 01:34:37;;;;;;;;;;;;;;;24.27;65.58;99724.22;2066711;28;19936;-67
2021/09/16 01:35:37;;;;;;;;;;;;;;;24.27;65.53;99724.22;2066353;28;19920;-67
2021/09/16 01:36:39;;;;;;;;;;;;;;;24.27;65.48;99724.22;2067127;28;20678;-67
2021/09/16 01:37:39;;;;;;;;;;;;;;;24.27;65.48;99718.69;2065164;28;19960;-67
2021/09/16 01:38:39;;;;;;;;;;;;;;;24.28;65.58;99720.44;2064974;28;20404;-67
2021/09/16 01:39:40;;;;;;;;;;;;;;;24.27;65.52;99726.13;2064731;28;20333;-67
2021/09/16 01:40:40;;;;;;;;;;;;;;;24.26;65.53;99725.28;2067205;28;19948;-66
2021/09/16 01:41:41;;;;;;;;;;;;;;;24.28;65.49;99725.09;2068089;28;19935;-67
2021/09/16 01:42:42;;;;;;;;;;;;;;;24.27;65.42;99726.97;2064146;28;19917;-67
2021/09/16 01:43:42;;;;;;;;;;;;;;;24.27;65.60;99723.38;2068949;28;20000;-67
2021/09/16 01:44:45;;;;;;;;;;;;;;;24.26;65.45;99725.28;2064607;28;19963;-67
2021/09/16 01:45:45;;;;;;;;;;;;;;;24.26;65.61;99728.03;2067722;28;19921;-68
2021/09/16 01:46:46;;;;;;;;;;;;;;;24.26;65.60;99728.03;2067923;28;19921;-68
2021/09/16 01:47:46;;;;;;;;;;;;;;;24.26;65.58;99722.50;2066466;28;19905;-68
2021/09/16 01:48:47;;;;;;;;;;;;;;;24.26;65.57;99719.75;2066420;28;20223;-68
2021/09/16 01:49:47;;;;;;;;;;;;;;;24.27;65.57;99715.94;2066516;28;19909;-68
2021/09/16 01:50:48;;;;;;;;;;;;;;;24.26;65.61;99719.75;2068997;28;20377;-67
2021/09/16 01:51:48;;;;;;;;;;;;;;;24.26;65.32;99717.00;2067598;28;19909;-67
2021/09/16 01:52:49;;;;;;;;;;;;;;;24.26;65.54;99717.00;2066780;28;19982;-67
2021/09/16 01:53:49;;;;;;;;;;;;;;;24.26;65.55;99711.50;2067679;28;19905;-67
2021/09/16 01:54:49;;;;;;;;;;;;;;;24.26;65.51;99717.00;2067315;28;20899;-67
2021/09/16 01:55:50;;;;;;;;;;;;;;;24.27;65.58;99723.38;2068649;28;19913;-67
2021/09/16 01:56:51;;;;;;;;;;;;;;;24.26;65.73;99713.41;2065978;28;19917;-67
2021/09/16 01:57:51;;;;;;;;;;;;;;;24.26;65.35;99722.50;2067190;28;19905;-67
2021/09/16 01:58:52;;;;;;;;;;;;;;;24.26;65.53;99722.50;2061588;28;20383;-67
2021/09/16 01:59:52;;;;;;;;;;;;;;;24.26;65.55;99728.03;2069223;28;19935;-67
2021/09/16 02:00:52;;;;;;;;;;;;;;;24.26;65.58;99725.28;2067634;28;19917;-67
2021/09/16 02:01:53;;;;;;;;;;;;;;;24.26;65.49;99721.66;2069125;28;19928;-67
2021/09/16 02:02:53;;;;;;;;;;;;;;;24.26;65.61;99722.50;2062669;28;20434;-67
2021/09/16 02:03:53;;;;;;;;;;;;;;;24.26;65.55;99728.03;2061616;28;20663;-67
2021/09/16 02:04:54;;;;;;;;;;;;;;;24.26;65.39;99727.19;2069855;28;19919;-67
2021/09/16 02:05:54;;;;;;;;;;;;;;;24.26;65.55;99725.28;2068026;28;20024;-67
2021/09/16 02:06:54;;;;;;;;;;;;;;;24.25;65.50;99720.78;2069477;28;19912;-67
2021/09/16 02:07:55;;;;;;;;;;;;;;;24.26;65.54;99727.19;2066407;28;19912;-67
2021/09/16 02:08:56;;;;;;;;;;;;;;;24.25;65.53;99726.28;2068677;28;19982;-67
2021/09/16 02:09:56;;;;;;;;;;;;;;;24.25;65.46;99720.78;2066730;28;19960;-67
2021/09/16 02:10:56;;;;;;;;;;;;;;;24.25;65.58;99726.28;2067300;28;19917;-67
2021/09/16 02:11:56;;;;;;;;;;;;;;;24.25;65.45;99726.28;2069983;28;20009;-67
2021/09/16 02:12:57;;;;;;;;;;;;;;;24.24;65.54;99730.09;2065207;28;19920;-67
2021/09/16 02:13:57;;;;;;;;;;;;;;;24.26;65.50;99722.50;2065001;28;20067;-67
2021/09/16 02:14:57;;;;;;;;;;;;;;;24.24;65.47;99724.59;2065768;28;19968;-66
2021/09/16 02:15:58;;;;;;;;;;;;;;;24.25;65.47;99722.69;2064816;28;19910;-67
2021/09/16 02:16:58;;;;;;;;;;;;;;;24.25;65.64;99715.28;2064650;28;19913;-68
2021/09/16 02:17:58;;;;;;;;;;;;;;;24.24;65.44;99710.84;2066451;28;19994;-68
2021/09/16 02:18:59;;;;;;;;;;;;;;;24.24;65.53;99716.34;2070566;28;21093;-68
2021/09/16 02:19:59;;;;;;;;;;;;;;;24.25;65.53;99709.78;2068087;28;20035;-68
2021/09/16 02:20:59;;;;;;;;;;;;;;;24.24;65.48;99702.56;2068421;28;19987;-67
2021/09/16 02:21:59;;;;;;;;;;;;;;;24.24;65.63;99710.84;2067654;28;19979;-67
2021/09/16 02:23:00;;;;;;;;;;;;;;;24.24;65.53;99713.59;2068743;28;19917;-68
2021/09/16 02:24:01;;;;;;;;;;;;;;;24.24;65.59;99727.34;2068273;28;19966;-67
2021/09/16 02:25:01;;;;;;;;;;;;;;;24.24;65.57;99713.59;2067226;28;20229;-67
2021/09/16 02:26:02;;;;;;;;;;;;;;;24.24;65.55;99719.09;2066184;28;19921;-67
2021/09/16 02:27:02;;;;;;;;;;;;;;;24.24;65.63;99713.59;2072620;28;20329;-67
2021/09/16 02:28:02;;;;;;;;;;;;;;;24.24;65.61;99710.84;2069984;28;19944;-67
2021/09/16 02:29:03;;;;;;;;;;;;;;;24.24;65.51;99713.59;2068215;28;19931;-67
2021/09/16 02:30:04;;;;;;;;;;;;;;;24.23;65.46;99714.66;2065588;28;23170;-67
2021/09/16 02:31:04;;;;;;;;;;;;;;;24.24;65.47;99719.09;2056367;28;19917;-67
2021/09/16 02:32:04;;;;;;;;;;;;;;;24.24;65.48;99713.59;2067231;28;19920;-67
2021/09/16 02:33:05;;;;;;;;;;;;;;;24.23;65.58;99711.88;2070853;28;19917;-67
2021/09/16 02:34:05;;;;;;;;;;;;;;;24.23;65.45;99706.38;2068685;28;20026;-67
2021/09/16 02:35:06;;;;;;;;;;;;;;;24.24;65.56;99716.34;2067497;28;19909;-67
2021/09/16 02:36:06;;;;;;;;;;;;;;;24.24;65.41;99702.56;2069821;28;19909;-67
2021/09/16 02:37:06;;;;;;;;;;;;;;;24.23;65.41;99700.88;2066985;28;19913;-67
2021/09/16 02:38:07;;;;;;;;;;;;;;;24.24;65.46;99707.22;2071434;28;19917;-67
2021/09/16 02:39:07;;;;;;;;;;;;;;;24.23;65.53;99711.88;2067356;28;19917;-66
2021/09/16 02:40:08;;;;;;;;;;;;;;;24.23;65.40;99700.00;2068037;28;19917;-66
2021/09/16 02:41:09;;;;;;;;;;;;;;;24.22;65.59;99699.16;2073643;28;19913;-67
2021/09/16 02:42:09;;;;;;;;;;;;;;;24.22;65.41;99698.31;2067306;28;19923;-67
2021/09/16 02:43:09;;;;;;;;;;;;;;;24.23;65.53;99694.50;2064946;28;20533;-66
2021/09/16 02:44:10;;;;;;;;;;;;;;;24.22;65.46;99690.03;2067567;28;19921;-67
2021/09/16 02:45:10;;;;;;;;;;;;;;;24.21;65.48;99694.69;2069070;28;20014;-67
2021/09/16 02:46:10;;;;;;;;;;;;;;;24.21;65.41;99686.44;2067111;28;19916;-67
2021/09/16 02:47:11;;;;;;;;;;;;;;;24.22;65.56;99693.63;2065242;28;19921;-67
2021/09/16 02:48:11;;;;;;;;;;;;;;;24.22;65.56;99693.63;2071029;28;20041;-67
2021/09/16 02:49:12;;;;;;;;;;;;;;;24.22;65.64;99688.13;2067422;28;20273;-67
2021/09/16 02:50:12;;;;;;;;;;;;;;;24.21;65.70;99696.59;2066036;28;20484;-66
2021/09/16 02:51:13;;;;;;;;;;;;;;;24.22;65.54;99687.28;2068099;28;19944;-66
2021/09/16 02:52:13;;;;;;;;;;;;;;;24.21;65.73;99691.94;2068496;28;20398;-66
2021/09/16 02:53:13;;;;;;;;;;;;;;;24.21;65.48;99689.19;2070533;28;20311;-66
2021/09/16 02:54:13;;;;;;;;;;;;;;;24.20;65.55;99690.22;2065132;28;19921;-67
2021/09/16 02:55:18;;;;;;;;;;;;;;;24.21;65.62;99691.94;2069715;28;19917;-66
2021/09/16 02:56:18;;;;;;;;;;;;;;;24.20;65.64;99690.22;2069572;28;20021;-67
2021/09/16 02:57:19;;;;;;;;;;;;;;;24.20;65.59;99692.97;2068840;28;19913;-67
2021/09/16 02:58:19;;;;;;;;;;;;;;;24.21;65.59;99691.09;2067606;28;19913;-67
2021/09/16 02:59:19;;;;;;;;;;;;;;;24.20;65.62;99690.22;2060759;28;19924;-67
2021/09/16 03:00:20;;;;;;;;;;;;;;;24.20;65.49;99684.72;2067650;28;19941;-67
2021/09/16 03:01:20;;;;;;;;;;;;;;;24.20;65.55;99690.22;2069583;28;19916;-67
2021/09/16 03:02:20;;;;;;;;;;;;;;;24.20;65.68;99695.72;2064375;28;20478;-67
2021/09/16 03:03:21;;;;;;;;;;;;;;;24.20;65.73;99690.22;2068004;28;20035;-67
2021/09/16 03:04:21;;;;;;;;;;;;;;;24.21;65.64;99694.69;2067087;28;19917;-67
2021/09/16 03:05:21;;;;;;;;;;;;;;;24.20;65.47;99690.22;2070065;28;19952;-66
2021/09/16 03:06:21;;;;;;;;;;;;;;;24.20;65.68;99689.38;2063778;28;19931;-66
2021/09/16 03:07:22;;;;;;;;;;;;;;;24.21;65.52;99691.94;2063214;28;19902;-66
2021/09/16 03:08:22;;;;;;;;;;;;;;;24.20;65.60;99695.72;2068848;28;20046;-67
2021/09/16 03:09:23;;;;;;;;;;;;;;;24.20;65.71;99694.88;2067879;28;20004;-67
2021/09/16 03:10:23;;;;;;;;;;;;;;;24.19;65.60;99683.03;2072074;28;20627;-67
2021/09/16 03:11:23;;;;;;;;;;;;;;;24.20;65.56;99692.97;2067957;28;19967;-67
2021/09/16 03:12:24;;;;;;;;;;;;;;;24.20;65.62;99690.22;2067697;28;19913;-67
2021/09/16 03:13:24;;;;;;;;;;;;;;;24.19;65.69;99688.53;2067874;28;19916;-67
2021/09/16 03:14:24;;;;;;;;;;;;;;;24.19;65.67;99699.53;2070881;28;19915;-67
2021/09/16 03:15:25;;;;;;;;;;;;;;;24.19;65.50;99691.28;2069406;28;19913;-67
2021/09/16 03:16:25;;;;;;;;;;;;;;;24.19;65.54;99694.03;2066241;28;19920;-67
2021/09/16 03:17:25;;;;;;;;;;;;;;;24.19;65.69;99691.28;2068835;28;19913;-67
2021/09/16 03:18:25;;;;;;;;;;;;;;;24.19;65.62;99688.53;2067858;28;20314;-70
2021/09/16 03:19:26;;;;;;;;;;;;;;;24.20;65.83;99690.22;2068297;28;19916;-66
2021/09/16 03:20:26;;;;;;;;;;;;;;;24.22;65.88;99688.13;2068113;28;19913;-65
2021/09/16 03:21:26;;;;;;;;;;;;;;;24.21;66.00;99689.19;2067274;28;19917;-65
2021/09/16 03:22:27;;;;;;;;;;;;;;;24.20;66.09;99678.34;2066511;28;20380;-66
2021/09/16 03:23:27;;;;;;;;;;;;;;;24.21;66.11;99686.44;2065041;28;20557;-66
2021/09/16 03:24:27;;;;;;;;;;;;;;;24.20;65.90;99684.72;2065670;28;20392;-65
2021/09/16 03:25:28;;;;;;;;;;;;;;;24.20;65.80;99689.38;2074833;28;20034;-66
2021/09/16 03:26:28;;;;;;;;;;;;;;;24.20;65.84;99687.47;2072864;28;19943;-66
2021/09/16 03:27:28;;;;;;;;;;;;;;;24.20;65.89;99692.13;2066573;28;19932;-65
2021/09/16 03:28:29;;;;;;;;;;;;;;;24.19;65.81;99685.78;2062060;28;20335;-66
2021/09/16 03:29:29;;;;;;;;;;;;;;;24.18;65.82;99687.69;2066949;28;19968;-66
2021/09/16 03:30:29;;;;;;;;;;;;;;;24.19;65.88;99694.03;2066313;28;19925;-66
2021/09/16 03:31:30;;;;;;;;;;;;;;;24.19;65.77;99685.78;2066939;28;20421;-66
2021/09/16 03:32:30;;;;;;;;;;;;;;;24.19;65.75;99688.53;2067359;28;19991;-65
2021/09/16 03:33:31;;;;;;;;;;;;;;;24.17;65.76;99677.69;2065021;28;19909;-66
2021/09/16 03:34:31;;;;;;;;;;;;;;;24.19;66.00;99677.50;2060765;28;20399;-66
2021/09/16 03:35:31;;;;;;;;;;;;;;;24.19;66.07;99677.50;2060850;28;20436;-66
2021/09/16 03:36:31;;;;;;;;;;;;;;;24.19;65.81;99669.25;2064231;28;20437;-66
2021/09/16 03:37:32;;;;;;;;;;;;;;;24.19;66.01;99677.50;2063766;28;19909;-65
2021/09/16 03:38:33;;;;;;;;;;;;;;;24.20;65.89;99678.34;2064627;28;19932;-66
2021/09/16 03:39:33;;;;;;;;;;;;;;;24.18;66.15;99673.91;2065699;28;19987;-65
2021/09/16 03:40:33;;;;;;;;;;;;;;;24.19;66.00;99677.50;2063548;28;19921;-66
2021/09/16 03:41:33;;;;;;;;;;;;;;;24.21;66.06;99678.19;2063859;28;20658;-66
2021/09/16 03:42:35;;;;;;;;;;;;;;;24.22;66.00;99674.38;2064873;28;20765;-66
2021/09/16 03:43:35;;;;;;;;;;;;;;;24.22;66.16;99677.13;2065429;28;20000;-66
2021/09/16 03:44:36;;;;;;;;;;;;;;;24.21;66.05;99675.41;2066822;28;19905;-65
2021/09/16 03:45:36;;;;;;;;;;;;;;;24.23;66.13;99677.97;2066589;28;19911;-65
2021/09/16 03:46:37;;;;;;;;;;;;;;;24.24;66.15;99676.94;2067304;28;19920;-65
2021/09/16 03:47:37;;;;;;;;;;;;;;;24.24;66.28;99676.94;2064424;28;19905;-65
2021/09/16 03:48:38;;;;;;;;;;;;;;;24.24;66.31;99675.03;2066138;28;19909;-65
2021/09/16 03:49:39;;;;;;;;;;;;;;;24.24;66.15;99672.28;2065987;28;19905;-65
2021/09/16 03:50:39;;;;;;;;;;;;;;;24.24;66.35;99672.28;2066388;28;19905;-66
2021/09/16 03:51:39;;;;;;;;;;;;;;;24.25;66.22;99678.63;2061914;28;19955;-66
2021/09/16 03:52:40;;;;;;;;;;;;;;;24.25;66.32;99681.38;2061904;28;19972;-66
2021/09/16 03:53:40;;;;;;;;;;;;;;;24.25;66.33;99675.88;2060231;28;20304;-65
2021/09/16 03:54:40;;;;;;;;;;;;;;;24.27;66.37;99682.03;2064258;28;20439;-65
2021/09/16 03:55:41;;;;;;;;;;;;;;;24.26;66.43;99678.44;2064010;28;19905;-64
2021/09/16 03:56:41;;;;;;;;;;;;;;;24.26;66.43;99683.97;2065190;28;20022;-65
2021/09/16 03:57:41;;;;;;;;;;;;;;;24.26;66.46;99670.19;2062870;28;19905;-65
2021/09/16 03:58:42;;;;;;;;;;;;;;;24.27;66.36;99680.13;2064512;28;20738;-65
2021/09/16 03:59:42;;;;;;;;;;;;;;;24.27;66.35;99673.78;2062405;28;19911;-65
2021/09/16 04:00:42;;;;;;;;;;;;;;;24.28;66.29;99681.88;2062628;28;19901;-65
2021/09/16 04:01:43;;;;;;;;;;;;;;;24.27;66.30;99685.66;2066499;28;20426;-65
2021/09/16 04:02:43;;;;;;;;;;;;;;;24.27;66.47;99685.66;2065509;28;19916;-64
2021/09/16 04:03:43;;;;;;;;;;;;;;;24.28;66.36;99678.25;2061552;28;19943;-64
2021/09/16 04:04:44;;;;;;;;;;;;;;;24.27;66.52;99680.13;2063839;28;20014;-64
2021/09/16 04:05:44;;;;;;;;;;;;;;;24.27;66.44;99682.91;2062911;28;19920;-65
2021/09/16 04:06:45;;;;;;;;;;;;;;;24.27;66.48;99680.13;2061540;28;20567;-65
2021/09/16 04:07:45;;;;;;;;;;;;;;;24.28;66.45;99676.34;2064910;28;19935;-64
2021/09/16 04:08:45;;;;;;;;;;;;;;;24.28;66.38;99681.88;2057402;28;19920;-64
2021/09/16 04:09:46;;;;;;;;;;;;;;;24.29;66.46;99680.81;2064236;28;19901;-64
2021/09/16 04:10:46;;;;;;;;;;;;;;;24.28;66.50;99673.59;2061672;28;19909;-63
2021/09/16 04:11:46;;;;;;;;;;;;;;;24.28;66.29;99676.34;2065448;28;19936;-65
2021/09/16 04:12:47;;;;;;;;;;;;;;;24.29;66.38;99683.56;2063052;28;20469;-64
2021/09/16 04:13:47;;;;;;;;;;;;;;;24.29;66.51;99678.06;2066770;28;19948;-64
2021/09/16 04:14:47;;;;;;;;;;;;;;;24.29;66.50;99675.28;2064619;28;19909;-66
2021/09/16 04:15:47;;;;;;;;;;;;;;;24.29;66.38;99680.81;2066815;28;20440;-66
2021/09/16 04:16:48;;;;;;;;;;;;;;;24.29;66.51;99678.06;2060502;28;19971;-67
2021/09/16 04:17:48;;;;;;;;;;;;;;;24.29;66.46;99678.06;2065507;28;19986;-66
2021/09/16 04:18:48;;;;;;;;;;;;;;;24.29;66.44;99672.53;2066248;28;19909;-65
2021/09/16 04:19:49;;;;;;;;;;;;;;;24.30;66.48;99676.16;2063085;28;19913;-66
2021/09/16 04:20:49;;;;;;;;;;;;;;;24.29;66.49;99672.53;2069130;28;19912;-66
2021/09/16 04:21:49;;;;;;;;;;;;;;;24.29;66.41;99667.03;2066665;28;19929;-66
2021/09/16 04:22:50;;;;;;;;;;;;;;;24.31;66.38;99675.97;2066241;28;20002;-66
2021/09/16 04:23:50;;;;;;;;;;;;;;;24.31;66.46;99669.59;2064366;28;19951;-66
2021/09/16 04:24:51;;;;;;;;;;;;;;;24.31;66.46;99664.94;2065551;28;19913;-65
2021/09/16 04:25:51;;;;;;;;;;;;;;;24.30;66.40;99663.25;2064343;28;19967;-66
2021/09/16 04:26:51;;;;;;;;;;;;;;;24.31;66.40;99675.97;2066033;28;19920;-65
2021/09/16 04:27:52;;;;;;;;;;;;;;;24.32;66.50;99663.03;2059325;28;19910;-66
2021/09/16 04:28:52;;;;;;;;;;;;;;;24.31;66.52;99664.94;2063290;28;19920;-65
2021/09/16 04:29:52;;;;;;;;;;;;;;;24.32;66.46;99663.03;2064426;28;19956;-66
2021/09/16 04:30:52;;;;;;;;;;;;;;;24.32;66.33;99666.63;2066700;28;19921;-66
2021/09/16 04:31:53;;;;;;;;;;;;;;;24.30;66.36;99663.25;2065401;28;19971;-66
2021/09/16 04:32:53;;;;;;;;;;;;;;;24.31;66.56;99664.94;2068724;28;19913;-66
2021/09/16 04:33:53;;;;;;;;;;;;;;;24.31;66.35;99664.94;2063617;28;19916;-66
2021/09/16 04:34:54;;;;;;;;;;;;;;;24.31;66.42;99664.09;2062253;28;19917;-66
2021/09/16 04:35:54;;;;;;;;;;;;;;;24.31;66.38;99662.19;2064955;28;19940;-66
2021/09/16 04:36:54;;;;;;;;;;;;;;;24.31;66.35;99651.16;2062456;28;20786;-65
2021/09/16 04:37:54;;;;;;;;;;;;;;;24.31;66.50;99658.59;2065860;28;20185;-66
2021/09/16 04:38:55;;;;;;;;;;;;;;;24.31;66.49;99658.59;2064436;28;20232;-66
2021/09/16 04:39:55;;;;;;;;;;;;;;;24.30;66.48;99657.75;2066007;28;19920;-65
2021/09/16 04:40:55;;;;;;;;;;;;;;;24.31;66.56;99653.94;2065591;28;19924;-66
2021/09/16 04:41:56;;;;;;;;;;;;;;;24.31;66.46;99648.41;2066668;28;19927;-66
2021/09/16 04:42:56;;;;;;;;;;;;;;;24.31;66.51;99653.06;2064345;28;19959;-66
2021/09/16 04:43:56;;;;;;;;;;;;;;;24.31;66.50;99659.44;2059960;28;19910;-66
2021/09/16 04:44:57;;;;;;;;;;;;;;;24.31;66.40;99653.94;2059421;28;19905;-67
2021/09/16 04:45:57;;;;;;;;;;;;;;;24.32;66.49;99654.78;2065392;28;20870;-66
2021/09/16 04:46:57;;;;;;;;;;;;;;;24.31;66.52;99653.94;2069459;28;21008;-61
2021/09/16 04:47:57;;;;;;;;;;;;;;;24.32;66.49;99660.28;2071639;28;20375;-62
2021/09/16 04:48:58;;;;;;;;;;;;;;;24.31;66.42;99648.41;2072299;28;20410;-61
2021/09/16 04:49:58;;;;;;;;;;;;;;;24.32;66.49;99655.63;2073150;28;20017;-62
2021/09/16 04:50:58;;;;;;;;;;;;;;;24.31;66.29;99659.44;2072981;28;20666;-61
2021/09/16 04:51:59;;;;;;;;;;;;;;;24.31;66.41;99658.59;2074754;28;20376;-61
2021/09/16 04:52:59;;;;;;;;;;;;;;;24.31;66.50;99656.69;2070469;28;19959;-62
2021/09/16 04:54:00;;;;;;;;;;;;;;;24.31;66.41;99659.44;2074760;28;19913;-61
2021/09/16 04:55:00;;;;;;;;;;;;;;;24.31;66.48;99662.19;2069664;28;19913;-61
2021/09/16 04:56:00;;;;;;;;;;;;;;;24.31;66.59;99656.69;2073282;28;19985;-61
2021/09/16 04:57:01;;;;;;;;;;;;;;;24.32;66.51;99672.16;2073891;28;19913;-62
2021/09/16 04:58:01;;;;;;;;;;;;;;;24.32;66.55;99660.28;2075709;28;19955;-62
2021/09/16 04:59:01;;;;;;;;;;;;;;;24.33;66.60;99668.38;2074976;28;19996;-61
2021/09/16 05:00:02;;;;;;;;;;;;;;;24.32;66.68;99669.38;2075572;28;20421;-61
2021/09/16 05:01:03;;;;;;;;;;;;;;;24.32;66.54;99661.13;2073473;28;19909;-61
2021/09/16 05:02:03;;;;;;;;;;;;;;;24.32;66.45;99666.63;2073402;28;19920;-62
2021/09/16 05:03:03;;;;;;;;;;;;;;;24.32;66.53;99669.38;2072346;28;19909;-61
2021/09/16 05:04:04;;;;;;;;;;;;;;;24.33;66.53;99668.38;2070400;28;20327;-61
2021/09/16 05:05:06;;;;;;;;;;;;;;;24.33;66.41;99671.13;2071010;28;19917;-60
2021/09/16 05:06:06;;;;;;;;;;;;;;;24.32;66.59;99672.16;2069039;28;20358;-60
2021/09/16 05:07:06;;;;;;;;;;;;;;;24.33;66.71;99675.78;2069856;28;19944;-62
2021/09/16 05:08:06;;;;;;;;;;;;;;;24.33;66.75;99675.78;2065636;28;20647;-61
2021/09/16 05:09:07;;;;;;;;;;;;;;;24.32;66.68;99669.38;2070201;28;20411;-61
2021/09/16 05:10:08;;;;;;;;;;;;;;;24.34;66.55;99680.22;2072024;28;19921;-62
2021/09/16 05:11:08;;;;;;;;;;;;;;;24.33;66.76;99675.78;2066636;28;19913;-61
2021/09/16 05:12:09;;;;;;;;;;;;;;;24.32;66.81;99676.81;2068662;28;19913;-61
2021/09/16 05:13:09;;;;;;;;;;;;;;;24.33;66.61;99679.38;2068117;28;20309;-62
2021/09/16 05:14:11;;;;;;;;;;;;;;;24.34;66.67;99680.22;2071925;28;19909;-62
2021/09/16 05:15:12;;;;;;;;;;;;;;;24.34;66.55;99685.72;2072140;28;19994;-62